createdAt,value
2023-02-22T00:02:11.378Z,99.90
2023-02-22T00:04:39.786Z,99.90
2023-02-22T00:07:07.342Z,99.90
2023-02-22T00:09:34.648Z,99.90
2023-02-22T00:12:01.624Z,99.90
2023-02-22T00:14:29.152Z,99.90
2023-02-22T00:16:59.543Z,99.90
2023-02-22T00:19:28.160Z,99.90
2023-02-22T00:21:55.180Z,99.90
2023-02-22T00:24:25.456Z,99.90
2023-02-22T00:26:55.607Z,99.90
2023-02-22T00:29:24.460Z,99.90
2023-02-22T00:31:52.159Z,99.90
2023-02-22T00:34:19.538Z,99.90
2023-02-22T00:36:49.007Z,99.90
2023-02-22T00:39:16.561Z,99.90
2023-02-22T00:41:43.940Z,99.90
2023-02-22T00:44:11.818Z,99.90
2023-02-22T00:46:38.762Z,99.90
2023-02-22T00:49:06.594Z,99.90
2023-02-22T00:51:33.949Z,99.90
2023-02-22T00:54:01.728Z,99.90
2023-02-22T00:56:28.733Z,99.90
2023-02-22T00:58:56.103Z,99.90
2023-02-22T01:01:24.201Z,99.90
2023-02-22T01:03:51.801Z,99.90
2023-02-22T01:06:19.432Z,99.90
2023-02-22T01:08:47.700Z,99.90
2023-02-22T01:11:16.781Z,99.90
2023-02-22T01:13:45.331Z,99.90
2023-02-22T01:16:12.376Z,99.90
2023-02-22T01:18:39.719Z,99.90
2023-02-22T01:21:07.101Z,99.90
2023-02-22T01:23:34.281Z,99.90
2023-02-22T01:26:01.244Z,99.90
2023-02-22T01:28:29.201Z,99.90
2023-02-22T01:30:56.809Z,99.90
2023-02-22T01:33:25.587Z,99.90
2023-02-22T01:35:52.675Z,99.90
2023-02-22T01:38:20.001Z,99.90
2023-02-22T01:40:49.271Z,99.90
2023-02-22T01:43:25.300Z,99.90
2023-02-22T01:46:24.746Z,99.90
2023-02-22T01:48:54.639Z,99.90
2023-02-22T01:51:25.862Z,99.90
2023-02-22T01:54:03.484Z,99.90
2023-02-22T01:56:34.024Z,99.90
2023-02-22T01:59:06.829Z,99.90
2023-02-22T02:01:36.388Z,99.90
2023-02-22T02:04:09.932Z,99.90
2023-02-22T02:06:38.113Z,99.90
2023-02-22T02:09:23.198Z,99.90
2023-02-22T02:11:50.968Z,99.90
2023-02-22T02:14:18.380Z,99.90
2023-02-22T02:16:51.859Z,99.90
2023-02-22T02:19:34.185Z,99.90
2023-02-22T02:22:25.413Z,99.90
2023-02-22T02:25:10.865Z,99.90
2023-02-22T02:27:58.095Z,99.90
2023-02-22T02:30:44.182Z,99.90
2023-02-22T02:33:16.930Z,99.90
2023-02-22T02:36:17.961Z,99.90
2023-02-22T02:39:06.812Z,99.90
2023-02-22T02:41:39.981Z,99.90
2023-02-22T02:44:13.620Z,99.90
2023-02-22T02:46:50.316Z,99.90
2023-02-22T02:49:24.110Z,99.90
2023-02-22T02:51:54.735Z,99.90
2023-02-22T02:54:23.322Z,99.90
2023-02-22T02:56:51.490Z,99.90
2023-02-22T02:59:26.772Z,99.90
2023-02-22T03:02:02.298Z,99.90
2023-02-22T03:04:56.912Z,99.90
2023-02-22T03:07:46.038Z,99.90
2023-02-22T03:10:33.884Z,99.90
2023-02-22T03:13:28.854Z,99.90
2023-02-22T03:16:02.762Z,99.90
2023-02-22T03:18:33.165Z,99.90
2023-02-22T03:21:21.970Z,99.90
2023-02-22T03:24:01.932Z,99.90
2023-02-22T03:26:45.325Z,99.90
2023-02-22T03:29:16.251Z,99.90
2023-02-22T03:31:48.778Z,99.90
2023-02-22T03:34:21.457Z,99.90
2023-02-22T03:37:00.902Z,99.90
2023-02-22T03:39:31.262Z,99.90
2023-02-22T03:42:04.820Z,99.90
2023-02-22T03:44:37.954Z,99.90
2023-02-22T03:47:11.136Z,99.90
2023-02-22T03:50:15.279Z,99.90
2023-02-22T03:52:44.175Z,99.90
2023-02-22T03:55:12.695Z,99.90
2023-02-22T03:57:43.715Z,99.90
2023-02-22T04:00:18.261Z,99.90
2023-02-22T04:02:45.381Z,99.90
2023-02-22T04:05:14.243Z,99.90
2023-02-22T04:07:42.313Z,99.90
2023-02-22T04:10:11.208Z,99.90
2023-02-22T04:12:38.214Z,99.90
2023-02-22T04:15:07.672Z,99.90
2023-02-22T04:17:34.964Z,99.90
2023-02-22T04:20:02.242Z,99.90
2023-02-22T04:22:29.221Z,99.90
2023-02-22T04:24:56.793Z,99.90
2023-02-22T04:27:23.891Z,99.90
2023-02-22T04:29:51.606Z,99.90
2023-02-22T04:32:18.819Z,99.90
2023-02-22T04:34:46.335Z,99.90
2023-02-22T04:37:13.269Z,99.90
2023-02-22T04:39:40.624Z,99.90
2023-02-22T04:42:07.595Z,99.90
2023-02-22T04:44:35.008Z,99.90
2023-02-22T04:47:02.051Z,99.90
2023-02-22T04:49:29.433Z,99.90
2023-02-22T04:51:56.415Z,99.90
2023-02-22T04:54:23.745Z,99.90
2023-02-22T04:56:50.743Z,99.90
2023-02-22T04:59:19.756Z,99.90
2023-02-22T05:01:47.042Z,99.90
2023-02-22T05:04:14.502Z,99.90
2023-02-22T05:06:41.617Z,99.90
2023-02-22T05:09:08.903Z,99.90
2023-02-22T05:11:35.845Z,99.90
2023-02-22T05:14:03.179Z,99.90
2023-02-22T05:16:30.266Z,99.90
2023-02-22T05:18:57.772Z,99.90
2023-02-22T05:21:24.729Z,99.90
2023-02-22T05:23:51.988Z,99.90
2023-02-22T05:26:19.155Z,99.90
2023-02-22T05:28:46.588Z,99.90
2023-02-22T05:31:13.730Z,99.90
2023-02-22T05:33:41.578Z,99.90
2023-02-22T05:36:09.034Z,99.90
2023-02-22T05:38:43.337Z,99.90
2023-02-22T05:41:12.095Z,99.90
2023-02-22T05:43:40.315Z,99.90
2023-02-22T05:46:07.818Z,99.90
2023-02-22T05:48:35.256Z,99.90
2023-02-22T05:51:03.808Z,99.90
2023-02-22T05:53:31.112Z,99.90
2023-02-22T05:55:58.128Z,99.90
2023-02-22T05:58:25.386Z,99.90
2023-02-22T06:00:52.510Z,99.90
2023-02-22T06:03:20.012Z,99.90
2023-02-22T06:05:47.228Z,99.90
2023-02-22T06:08:14.567Z,99.90
2023-02-22T06:10:41.525Z,99.90
2023-02-22T06:13:09.065Z,99.90
2023-02-22T06:15:36.080Z,99.90
2023-02-22T06:18:03.858Z,99.90
2023-02-22T06:20:31.383Z,99.90
2023-02-22T06:22:59.339Z,99.90
2023-02-22T06:25:31.186Z,99.90
2023-02-22T06:27:59.540Z,99.90
2023-02-22T06:30:27.863Z,99.90
2023-02-22T06:32:55.404Z,99.90
2023-02-22T06:35:22.977Z,99.90
2023-02-22T06:37:50.246Z,99.90
2023-02-22T06:40:17.537Z,99.90
2023-02-22T06:42:47.167Z,99.90
2023-02-22T06:45:15.949Z,99.90
2023-02-22T06:47:43.323Z,99.90
2023-02-22T06:50:30.546Z,99.90
2023-02-22T06:52:58.676Z,99.90
2023-02-22T06:55:28.786Z,99.90
2023-02-22T06:57:56.384Z,99.90
2023-02-22T07:00:25.505Z,99.90
2023-02-22T07:02:54.133Z,99.90
2023-02-22T07:05:23.661Z,99.90
2023-02-22T07:07:52.946Z,99.90
2023-02-22T07:10:24.791Z,99.90
2023-02-22T07:12:52.588Z,99.90
2023-02-22T07:15:24.664Z,99.90
2023-02-22T07:17:52.723Z,99.90
2023-02-22T07:20:21.321Z,99.90
2023-02-22T07:22:49.419Z,99.90
2023-02-22T07:25:16.839Z,99.90
2023-02-22T07:27:44.183Z,99.90
2023-02-22T07:30:26.337Z,99.90
2023-02-22T07:32:55.197Z,99.90
2023-02-22T07:35:33.628Z,99.90
2023-02-22T07:38:01.174Z,99.90
2023-02-22T07:40:28.683Z,99.90
2023-02-22T07:42:59.614Z,99.90
2023-02-22T07:45:36.236Z,99.90
2023-02-22T07:48:05.758Z,99.90
2023-02-22T07:50:34.509Z,99.90
2023-02-22T07:53:07.687Z,99.90
2023-02-22T07:55:35.067Z,99.90
2023-02-22T07:58:05.090Z,99.90
2023-02-22T08:00:40.462Z,99.90
2023-02-22T08:03:10.688Z,99.90
2023-02-22T08:05:39.543Z,99.90
2023-02-22T08:08:07.779Z,99.90
2023-02-22T08:10:36.167Z,99.90
2023-02-22T08:13:05.216Z,99.90
2023-02-22T08:15:37.892Z,99.90
2023-02-22T08:18:10.612Z,99.90
2023-02-22T08:20:39.321Z,99.90
2023-02-22T08:23:07.305Z,99.90
2023-02-22T08:25:34.700Z,99.90
2023-02-22T08:28:08.776Z,99.90
2023-02-22T08:30:38.307Z,99.90
2023-02-22T08:33:07.554Z,99.90
2023-02-22T08:35:34.919Z,99.90
2023-02-22T08:38:05.069Z,99.90
2023-02-22T08:40:34.902Z,99.90
2023-02-22T08:43:02.936Z,99.90
2023-02-22T08:45:30.606Z,99.90
2023-02-22T08:47:59.454Z,99.90
2023-02-22T08:50:30.682Z,99.90
2023-02-22T08:53:00.418Z,99.90
2023-02-22T08:55:32.403Z,99.90
2023-02-22T08:58:02.987Z,99.90
2023-02-22T09:00:33.375Z,99.90
2023-02-22T09:03:05.487Z,99.90
2023-02-22T09:05:32.969Z,99.90
2023-02-22T09:08:00.883Z,99.90
2023-02-22T09:10:32.856Z,99.90
2023-02-22T09:13:01.382Z,99.90
2023-02-22T09:15:29.248Z,99.90
2023-02-22T09:17:56.855Z,99.90
2023-02-22T09:20:25.445Z,99.90
2023-02-22T09:22:53.549Z,99.90
2023-02-22T09:25:21.122Z,99.90
2023-02-22T09:27:50.941Z,99.90
2023-02-22T09:30:33.948Z,99.90
2023-02-22T09:33:03.125Z,99.90
2023-02-22T09:35:30.378Z,99.90
2023-02-22T09:38:00.185Z,99.90
2023-02-22T09:40:30.583Z,99.90
2023-02-22T09:43:26.035Z,99.90
2023-02-22T09:46:02.782Z,99.90
2023-02-22T09:48:36.393Z,99.90
2023-02-22T09:51:11.688Z,99.90
2023-02-22T09:53:45.363Z,99.90
2023-02-22T09:56:18.734Z,99.90
2023-02-22T09:58:55.142Z,99.90
2023-02-22T10:01:55.793Z,99.90
2023-02-22T10:04:44.968Z,99.90
2023-02-22T10:07:29.264Z,99.90
2023-02-22T10:09:57.807Z,99.90
2023-02-22T10:12:48.332Z,99.90
2023-02-22T10:15:34.344Z,99.90
2023-02-22T10:18:30.593Z,99.90
2023-02-22T10:21:21.855Z,99.90
2023-02-22T10:23:55.062Z,99.90
2023-02-22T10:26:43.210Z,99.90
2023-02-22T10:29:28.929Z,99.90
2023-02-22T10:32:03.047Z,99.90
2023-02-22T10:34:46.245Z,99.90
2023-02-22T10:37:19.511Z,99.90
2023-02-22T10:39:50.154Z,99.90
2023-02-22T10:42:17.557Z,99.90
2023-02-22T10:44:44.518Z,99.90
2023-02-22T10:47:17.592Z,99.90
2023-02-22T10:49:57.230Z,99.90
2023-02-22T10:52:31.028Z,99.90
2023-02-22T10:55:14.206Z,99.90
2023-02-22T10:57:46.602Z,99.90
2023-02-22T11:00:19.886Z,99.90
2023-02-22T11:02:57.432Z,99.90
2023-02-22T11:05:37.556Z,99.90
2023-02-22T11:08:26.168Z,99.90
2023-02-22T11:10:56.608Z,99.90
2023-02-22T11:13:28.707Z,99.90
2023-02-22T11:16:00.576Z,99.90
2023-02-22T11:18:32.851Z,99.90
2023-02-22T11:21:04.876Z,99.90
2023-02-22T11:23:33.150Z,99.90
2023-02-22T11:26:07.537Z,99.90
2023-02-22T11:28:36.003Z,99.90
2023-02-22T11:31:24.200Z,99.90
2023-02-22T11:36:40.486Z,99.90
2023-02-22T11:39:29.117Z,99.90
2023-02-22T11:41:57.066Z,99.90
2023-02-22T11:44:27.786Z,99.90
2023-02-22T11:46:57.373Z,99.90
2023-02-22T11:49:33.347Z,99.90
2023-02-22T11:52:22.194Z,99.90
2023-02-22T11:54:58.196Z,99.90
2023-02-22T11:58:08.464Z,99.90
2023-02-22T12:00:58.949Z,99.90
2023-02-22T12:03:48.126Z,99.90
2023-02-22T12:06:33.514Z,99.90
2023-02-22T12:09:15.596Z,99.90
2023-02-22T12:12:21.332Z,99.90
2023-02-22T12:15:36.449Z,99.90
2023-02-22T12:18:45.205Z,99.90
2023-02-22T12:21:20.288Z,99.90
2023-02-22T12:24:00.425Z,99.90
2023-02-22T12:26:43.687Z,99.90
2023-02-22T12:29:14.589Z,99.90
2023-02-22T12:31:57.622Z,99.90
2023-02-22T12:34:30.678Z,99.90
2023-02-22T12:37:22.194Z,99.90
2023-02-22T12:40:01.932Z,99.90
2023-02-22T12:42:57.950Z,99.90
2023-02-22T12:45:41.159Z,99.90
2023-02-22T12:48:08.285Z,99.80
2023-02-22T12:50:37.795Z,99.80
2023-02-22T12:53:31.153Z,98.90
2023-02-22T12:56:22.540Z,98.30
2023-02-22T12:59:02.770Z,98.20
2023-02-22T13:01:42.172Z,98.80
2023-02-22T13:04:20.621Z,97.60
2023-02-22T13:06:53.702Z,97.60
2023-02-22T13:10:01.445Z,97.10
2023-02-22T13:12:40.897Z,97.70
2023-02-22T13:15:29.967Z,97.10
2023-02-22T13:18:40.949Z,96.80
2023-02-22T13:21:31.066Z,97.10
2023-02-22T13:24:12.577Z,98.90
2023-02-22T13:26:54.942Z,99.20
2023-02-22T13:29:37.900Z,99.80
2023-02-22T13:32:36.092Z,98.60
2023-02-22T13:35:12.423Z,98.50
2023-02-22T13:37:51.750Z,98.10
2023-02-22T13:40:56.412Z,99.90
2023-02-22T13:43:38.615Z,99.90
2023-02-22T13:46:24.405Z,99.90
2023-02-22T13:49:31.717Z,99.90
2023-02-22T13:52:07.820Z,99.90
2023-02-22T13:54:40.790Z,99.90
2023-02-22T13:57:19.977Z,99.90
2023-02-22T13:59:47.494Z,99.90
2023-02-22T14:03:02.773Z,99.90
2023-02-22T14:05:39.956Z,99.90
2023-02-22T14:08:14.403Z,99.90
2023-02-22T14:10:47.567Z,99.90
2023-02-22T14:13:18.036Z,99.90
2023-02-22T14:16:00.638Z,99.90
2023-02-22T14:18:36.065Z,99.90
2023-02-22T14:21:22.202Z,99.90
2023-02-22T14:23:52.088Z,99.90
2023-02-22T14:26:22.381Z,99.90
2023-02-22T14:28:53.032Z,99.90
2023-02-22T14:31:35.566Z,99.90
2023-02-22T14:34:10.993Z,99.90
2023-02-22T14:36:56.400Z,99.90
2023-02-22T14:39:39.188Z,99.90
2023-02-22T14:42:12.574Z,99.90
2023-02-22T14:44:59.600Z,99.90
2023-02-22T14:47:34.840Z,99.90
2023-02-22T14:50:12.841Z,99.90
2023-02-22T14:52:43.387Z,99.90
2023-02-22T14:55:23.631Z,99.90
2023-02-22T14:58:09.465Z,99.90
2023-02-22T15:00:38.456Z,99.90
2023-02-22T15:03:05.564Z,99.90
2023-02-22T15:05:38.604Z,99.90
2023-02-22T15:08:08.486Z,99.90
2023-02-22T15:10:51.524Z,99.90
2023-02-22T15:13:24.841Z,99.90
2023-02-22T15:15:56.539Z,99.90
2023-02-22T15:18:32.732Z,99.90
2023-02-22T15:21:07.189Z,99.90
2023-02-22T15:23:43.932Z,99.90
2023-02-22T15:26:35.356Z,99.90
2023-02-22T15:29:07.844Z,99.90
2023-02-22T15:31:37.539Z,99.90
2023-02-22T15:34:25.214Z,99.90
2023-02-22T15:36:57.746Z,99.90
2023-02-22T15:39:29.742Z,99.90
2023-02-22T15:42:10.526Z,99.90
2023-02-22T15:44:43.339Z,99.90
2023-02-22T15:47:20.474Z,99.90
2023-02-22T15:50:15.392Z,99.90
2023-02-22T15:53:00.631Z,99.90
2023-02-22T15:55:30.038Z,99.90
2023-02-22T15:58:02.002Z,99.90
2023-02-22T16:00:36.084Z,99.90
2023-02-22T16:03:16.717Z,99.90
2023-02-22T16:05:46.663Z,99.90
2023-02-22T16:08:20.638Z,99.90
2023-02-22T16:11:05.679Z,99.90
2023-02-22T16:13:35.427Z,99.90
2023-02-22T16:16:05.353Z,99.90
2023-02-22T16:18:38.327Z,99.90
2023-02-22T16:21:07.327Z,99.90
2023-02-22T16:23:44.855Z,99.90
2023-02-22T16:26:23.232Z,99.90
2023-02-22T16:28:52.949Z,99.90
2023-02-22T16:31:25.993Z,99.90
2023-02-22T16:33:54.430Z,99.90
2023-02-22T16:36:35.709Z,99.90
2023-02-22T16:39:07.177Z,99.90
2023-02-22T16:41:34.488Z,99.90
2023-02-22T16:44:02.017Z,99.90
2023-02-22T16:46:30.706Z,99.90
2023-02-22T16:49:03.304Z,99.90
2023-02-22T16:51:39.784Z,99.90
2023-02-22T16:54:11.662Z,99.90
2023-02-22T16:56:40.627Z,99.90
2023-02-22T16:59:12.235Z,99.90
2023-02-22T17:01:39.316Z,99.90
2023-02-22T17:04:14.847Z,99.90
2023-02-22T17:06:42.041Z,99.90
2023-02-22T17:09:09.474Z,99.90
2023-02-22T17:11:37.737Z,99.90
2023-02-22T17:14:05.608Z,99.90
2023-02-22T17:16:32.923Z,99.90
2023-02-22T17:19:00.298Z,99.90
2023-02-22T17:21:27.282Z,99.90
2023-02-22T17:23:54.736Z,99.90
2023-02-22T17:26:21.781Z,99.90
2023-02-22T17:28:49.050Z,99.90
2023-02-22T17:31:22.792Z,99.90
2023-02-22T17:33:51.576Z,99.90
2023-02-22T17:36:19.098Z,99.90
2023-02-22T17:38:46.577Z,99.90
2023-02-22T17:41:13.547Z,99.90
2023-02-22T17:43:40.970Z,99.90
2023-02-22T17:46:08.558Z,99.90
2023-02-22T17:48:35.993Z,99.90
2023-02-22T17:51:11.498Z,99.90
2023-02-22T17:53:39.192Z,99.90
2023-02-22T17:56:13.292Z,99.90
2023-02-22T17:58:41.558Z,99.90
2023-02-22T18:01:20.844Z,99.90
2023-02-22T18:03:48.550Z,99.90
2023-02-22T18:06:23.177Z,99.90
2023-02-22T18:08:55.830Z,99.90
2023-02-22T18:11:28.172Z,99.90
2023-02-22T18:13:57.031Z,99.90
2023-02-22T18:16:28.696Z,99.90
2023-02-22T18:18:56.972Z,99.90
2023-02-22T18:21:26.835Z,99.90
2023-02-22T18:23:55.021Z,99.90
2023-02-22T18:26:24.243Z,99.90
2023-02-22T18:28:53.598Z,99.90
2023-02-22T18:31:22.260Z,99.90
2023-02-22T18:33:51.896Z,99.90
2023-02-22T18:36:23.627Z,99.90
2023-02-22T18:38:53.199Z,99.90
2023-02-22T18:41:25.180Z,99.90
2023-02-22T18:43:55.329Z,99.90
2023-02-22T18:46:24.618Z,99.90
2023-02-22T18:48:54.831Z,99.90
2023-02-22T18:51:22.261Z,99.90
2023-02-22T18:53:59.876Z,99.90
2023-02-22T18:56:31.270Z,99.90
2023-02-22T18:59:01.189Z,99.90
2023-02-22T19:01:30.355Z,99.90
2023-02-22T19:03:57.938Z,99.90
2023-02-22T19:06:25.109Z,99.90
2023-02-22T19:08:52.697Z,99.90
2023-02-22T19:11:22.462Z,99.90
2023-02-22T19:13:52.632Z,99.90
2023-02-22T19:16:21.702Z,99.90
2023-02-22T19:18:52.595Z,99.90
2023-02-22T19:21:20.816Z,99.90
2023-02-22T19:23:49.228Z,99.90
2023-02-22T19:26:20.036Z,99.90
2023-02-22T19:28:48.660Z,99.90
2023-02-22T19:31:18.585Z,99.90
2023-02-22T19:33:47.976Z,99.90
2023-02-22T19:36:15.450Z,99.90
2023-02-22T19:38:42.987Z,99.90
2023-02-22T19:41:13.658Z,99.90
2023-02-22T19:43:40.946Z,99.90
2023-02-22T19:46:08.624Z,99.90
2023-02-22T19:48:36.096Z,99.90
2023-02-22T19:51:06.250Z,99.90
2023-02-22T19:53:34.409Z,99.90
2023-02-22T19:56:05.810Z,99.90
2023-02-22T19:58:36.721Z,99.90
2023-02-22T20:01:23.185Z,99.90
2023-02-22T20:03:59.700Z,99.90
2023-02-22T20:06:34.779Z,99.90
2023-02-22T20:09:02.718Z,99.90
2023-02-22T20:11:29.828Z,99.90
2023-02-22T20:13:57.202Z,99.90
2023-02-22T20:16:24.526Z,99.90
2023-02-22T20:18:52.165Z,99.90
2023-02-22T20:21:23.128Z,99.90
2023-02-22T20:23:50.847Z,99.90
2023-02-22T20:26:22.410Z,99.90
2023-02-22T20:28:50.771Z,99.90
2023-02-22T20:31:19.434Z,99.90
2023-02-22T20:33:48.934Z,99.90
2023-02-22T20:36:17.977Z,99.90
2023-02-22T20:38:45.798Z,99.90
2023-02-22T20:41:16.172Z,99.90
2023-02-22T20:43:43.753Z,99.90
2023-02-22T20:46:10.879Z,99.90
2023-02-22T20:48:38.281Z,99.90
2023-02-22T20:51:06.972Z,99.90
2023-02-22T20:53:35.396Z,99.90
2023-02-22T20:56:02.496Z,99.90
2023-02-22T20:58:29.736Z,99.90
2023-02-22T21:00:56.705Z,99.90
2023-02-22T21:03:24.288Z,99.90
2023-02-22T21:05:51.640Z,99.90
2023-02-22T21:08:19.027Z,99.90
2023-02-22T21:10:47.547Z,99.90
2023-02-22T21:13:14.946Z,99.90
2023-02-22T21:15:43.556Z,99.90
2023-02-22T21:18:11.328Z,99.90
2023-02-22T21:20:41.085Z,99.90
2023-02-22T21:23:09.157Z,99.90
2023-02-22T21:25:36.204Z,99.90
2023-02-22T21:28:05.258Z,99.90
2023-02-22T21:30:33.120Z,99.90
2023-02-22T21:33:02.183Z,99.90
2023-02-22T21:35:30.216Z,99.90
2023-02-22T21:37:57.582Z,99.90
2023-02-22T21:40:26.326Z,99.90
2023-02-22T21:42:53.677Z,99.90
2023-02-22T21:45:22.591Z,99.90
2023-02-22T21:47:53.004Z,99.90
2023-02-22T21:50:20.684Z,99.90
2023-02-22T21:52:49.054Z,99.90
2023-02-22T21:55:16.272Z,99.90
2023-02-22T21:57:43.512Z,99.90
2023-02-22T22:00:17.608Z,99.90
2023-02-22T22:02:48.504Z,99.90
2023-02-22T22:05:33.317Z,99.90
2023-02-22T22:08:07.326Z,99.90
2023-02-22T22:10:36.314Z,99.90
2023-02-22T22:13:03.580Z,99.90
2023-02-22T22:15:36.891Z,99.90
2023-02-22T22:18:08.116Z,99.90
2023-02-22T22:20:38.412Z,99.90
2023-02-22T22:23:07.203Z,99.90
2023-02-22T22:25:38.133Z,99.90
2023-02-22T22:28:07.609Z,99.90
2023-02-22T22:30:37.050Z,99.90
2023-02-22T22:33:05.711Z,99.90
2023-02-22T22:35:33.579Z,99.90
2023-02-22T22:38:01.516Z,99.90
2023-02-22T22:40:28.788Z,99.90
2023-02-22T22:42:56.044Z,99.90
2023-02-22T22:45:23.061Z,99.90
2023-02-22T22:47:52.224Z,99.90
2023-02-22T22:50:19.551Z,99.90
2023-02-22T22:52:47.268Z,99.90
2023-02-22T22:55:14.680Z,99.90
2023-02-22T22:57:42.237Z,99.90
2023-02-22T23:00:26.848Z,99.90
2023-02-22T23:02:57.184Z,99.90
2023-02-22T23:05:28.587Z,99.90
2023-02-22T23:07:57.082Z,99.90
2023-02-22T23:10:27.604Z,99.90
2023-02-22T23:12:58.864Z,99.90
2023-02-22T23:15:26.204Z,99.90
2023-02-22T23:17:59.194Z,99.90
2023-02-22T23:20:26.645Z,99.90
2023-02-22T23:22:54.591Z,99.90
2023-02-22T23:25:22.172Z,99.90
2023-02-22T23:27:49.601Z,99.90
2023-02-22T23:30:18.680Z,99.90
2023-02-22T23:32:46.818Z,99.90
2023-02-22T23:35:19.060Z,99.90
2023-02-22T23:37:53.484Z,99.90
2023-02-22T23:40:20.509Z,99.90
2023-02-22T23:42:54.590Z,99.90
2023-02-22T23:45:23.363Z,99.90
2023-02-22T23:48:00.783Z,99.90
2023-02-22T23:50:30.043Z,99.90
2023-02-22T23:53:00.018Z,99.90
2023-02-22T23:55:31.621Z,99.90
2023-02-22T23:57:59.838Z,99.90
